sensor_id;sensor_type;location;lat;lon;timestamp;pressure;altitude;pressure_sealevel;temperature;humidity
55171;BME280;41060;47.510;8.680;2023-02-28T00:00:51;97413.94;;;1.92;45.57
55171;BME280;41060;47.510;8.680;2023-02-28T00:03:17;97418.59;;;1.84;45.64
55171;BME280;41060;47.510;8.680;2023-02-28T00:05:45;97421.81;;;1.68;46.02
55171;BME280;41060;47.510;8.680;2023-02-28T00:08:13;97384.72;;;1.60;46.07
55171;BME280;41060;47.510;8.680;2023-02-28T00:10:39;97407.38;;;1.82;45.86
55171;BME280;41060;47.510;8.680;2023-02-28T00:13:06;97409.31;;;1.98;45.70
55171;BME280;41060;47.510;8.680;2023-02-28T00:15:36;97387.53;;;1.77;46.12
55171;BME280;41060;47.510;8.680;2023-02-28T00:18:03;97396.00;;;1.83;46.05
55171;BME280;41060;47.510;8.680;2023-02-28T00:20:29;97402.03;;;1.85;45.63
55171;BME280;41060;47.510;8.680;2023-02-28T00:22:58;97398.03;;;1.54;46.77
55171;BME280;41060;47.510;8.680;2023-02-28T00:25:25;97400.03;;;1.69;46.27
55171;BME280;41060;47.510;8.680;2023-02-28T00:27:51;97312.22;;;1.25;45.96
55171;BME280;41060;47.510;8.680;2023-02-28T00:30:20;97401.97;;;1.86;45.91
55171;BME280;41060;47.510;8.680;2023-02-28T00:32:47;97408.56;;;1.95;46.27
55171;BME280;41060;47.510;8.680;2023-02-28T00:35:14;97404.00;;;1.79;45.97
55171;BME280;41060;47.510;8.680;2023-02-28T00:37:42;97400.03;;;1.69;46.32
55171;BME280;41060;47.510;8.680;2023-02-28T00:40:10;97404.41;;;1.47;46.04
55171;BME280;41060;47.510;8.680;2023-02-28T00:42:38;97195.13;;;0.30;47.07
55171;BME280;41060;47.510;8.680;2023-02-28T00:45:06;97399.84;;;1.52;46.57
55171;BME280;41060;47.510;8.680;2023-02-28T00:47:33;97370.16;;;1.55;46.53
55171;BME280;41060;47.510;8.680;2023-02-28T00:50:00;97400.88;;;1.70;46.37
55171;BME280;41060;47.510;8.680;2023-02-28T00:52:27;97356.88;;;1.39;46.19
55171;BME280;41060;47.510;8.680;2023-02-28T00:54:54;97386.31;;;1.64;46.31
55171;BME280;41060;47.510;8.680;2023-02-28T00:57:22;97395.97;;;1.84;45.54
55171;BME280;41060;47.510;8.680;2023-02-28T00:59:49;97397.66;;;1.63;46.42
55171;BME280;41060;47.510;8.680;2023-02-28T01:02:16;97370.13;;;1.56;46.56
55171;BME280;41060;47.510;8.680;2023-02-28T01:04:43;97372.41;;;1.64;46.32
55171;BME280;41060;47.510;8.680;2023-02-28T01:07:10;97368.75;;;1.68;46.20
55171;BME280;41060;47.510;8.680;2023-02-28T01:09:37;97431.13;;;1.75;46.13
55171;BME280;41060;47.510;8.680;2023-02-28T01:12:04;97399.59;;;1.58;46.85
55171;BME280;41060;47.510;8.680;2023-02-28T01:14:32;97397.13;;;1.77;45.92
55171;BME280;41060;47.510;8.680;2023-02-28T01:16:59;97347.28;;;1.18;46.44
55171;BME280;41060;47.510;8.680;2023-02-28T01:19:26;97401.59;;;1.52;46.87
55171;BME280;41060;47.510;8.680;2023-02-28T01:21:53;97184.41;;;0.38;46.44
55171;BME280;41060;47.510;8.680;2023-02-28T01:24:20;97400.09;;;1.68;46.63
55171;BME280;41060;47.510;8.680;2023-02-28T01:26:49;97384.19;;;1.52;46.29
55171;BME280;41060;47.510;8.680;2023-02-28T01:29:17;97407.41;;;1.58;46.22
55171;BME280;41060;47.510;8.680;2023-02-28T01:31:45;97403.84;;;1.83;46.21
55171;BME280;41060;47.510;8.680;2023-02-28T01:34:11;97410.66;;;1.65;46.10
55171;BME280;41060;47.510;8.680;2023-02-28T01:36:39;97312.63;;;1.14;46.02
55171;BME280;41060;47.510;8.680;2023-02-28T01:39:05;97371.19;;;1.51;46.21
55171;BME280;41060;47.510;8.680;2023-02-28T01:41:33;97215.28;;;0.70;45.53
55171;BME280;41060;47.510;8.680;2023-02-28T01:44:03;97400.88;;;1.92;45.76
55171;BME280;41060;47.510;8.680;2023-02-28T01:46:31;97329.06;;;1.38;46.30
55171;BME280;41060;47.510;8.680;2023-02-28T01:49:03;97405.59;;;1.82;46.13
55171;BME280;41060;47.510;8.680;2023-02-28T01:51:36;97379.94;;;1.71;45.82
55171;BME280;41060;47.510;8.680;2023-02-28T01:54:07;97405.84;;;1.98;45.69
55171;BME280;41060;47.510;8.680;2023-02-28T01:56:43;97328.47;;;1.10;45.58
55171;BME280;41060;47.510;8.680;2023-02-28T01:59:12;97398.38;;;1.67;46.32
55171;BME280;41060;47.510;8.680;2023-02-28T02:01:42;97404.81;;;1.80;46.59
55171;BME280;41060;47.510;8.680;2023-02-28T02:04:10;97398.22;;;1.71;45.96
55171;BME280;41060;47.510;8.680;2023-02-28T02:06:39;97362.13;;;1.37;46.59
55171;BME280;41060;47.510;8.680;2023-02-28T02:09:07;97382.66;;;1.68;46.24
55171;BME280;41060;47.510;8.680;2023-02-28T02:11:34;97400.53;;;1.79;46.69
55171;BME280;41060;47.510;8.680;2023-02-28T02:14:22;97350.25;;;1.52;46.59
55171;BME280;41060;47.510;8.680;2023-02-28T02:17:01;97400.31;;;1.84;45.76
55171;BME280;41060;47.510;8.680;2023-02-28T02:23:06;97393.72;;;1.53;47.26
55171;BME280;41060;47.510;8.680;2023-02-28T02:25:45;97388.69;;;1.49;47.21
55171;BME280;41060;47.510;8.680;2023-02-28T02:28:34;97388.09;;;1.64;46.83
55171;BME280;41060;47.510;8.680;2023-02-28T02:31:22;97384.56;;;1.87;46.10
55171;BME280;41060;47.510;8.680;2023-02-28T02:37:14;97352.78;;;1.75;45.35
55171;BME280;41060;47.510;8.680;2023-02-28T02:39:48;97367.28;;;1.83;46.12
55171;BME280;41060;47.510;8.680;2023-02-28T02:42:23;97335.19;;;1.59;45.93
55171;BME280;41060;47.510;8.680;2023-02-28T02:44:58;97369.97;;;1.81;46.06
55171;BME280;41060;47.510;8.680;2023-02-28T02:47:29;97372.47;;;1.84;45.66
55171;BME280;41060;47.510;8.680;2023-02-28T02:49:59;97373.47;;;1.80;46.24
55171;BME280;41060;47.510;8.680;2023-02-28T02:52:34;97372.94;;;1.94;45.84
55171;BME280;41060;47.510;8.680;2023-02-28T02:55:05;97336.28;;;1.75;45.91
55171;BME280;41060;47.510;8.680;2023-02-28T02:57:35;97304.97;;;1.53;46.64
55171;BME280;41060;47.510;8.680;2023-02-28T03:00:05;97370.13;;;1.98;46.37
55171;BME280;41060;47.510;8.680;2023-02-28T03:02:35;97369.00;;;1.84;46.43
55171;BME280;41060;47.510;8.680;2023-02-28T03:05:05;97368.66;;;1.71;46.51
55171;BME280;41060;47.510;8.680;2023-02-28T03:07:34;97367.28;;;1.83;46.36
55171;BME280;41060;47.510;8.680;2023-02-28T03:10:01;97330.56;;;1.65;46.30
55171;BME280;41060;47.510;8.680;2023-02-28T03:12:41;97365.16;;;1.92;45.97
55171;BME280;41060;47.510;8.680;2023-02-28T03:15:13;97362.06;;;1.83;46.29
55171;BME280;41060;47.510;8.680;2023-02-28T03:17:58;97302.31;;;1.11;47.17
55171;BME280;41060;47.510;8.680;2023-02-28T03:20:36;97363.59;;;1.66;46.67
55171;BME280;41060;47.510;8.680;2023-02-28T03:23:13;97361.03;;;1.43;47.59
55171;BME280;41060;47.510;8.680;2023-02-28T03:25:52;97294.38;;;1.14;47.20
55171;BME280;41060;47.510;8.680;2023-02-28T03:28:28;97357.09;;;1.76;46.28
55171;BME280;41060;47.510;8.680;2023-02-28T03:31:02;97362.63;;;1.69;47.05
55171;BME280;41060;47.510;8.680;2023-02-28T03:33:38;97369.81;;;1.42;46.62
55171;BME280;41060;47.510;8.680;2023-02-28T03:36:09;97366.25;;;1.43;47.35
55171;BME280;41060;47.510;8.680;2023-02-28T03:38:41;97318.34;;;1.24;46.83
55171;BME280;41060;47.510;8.680;2023-02-28T03:41:14;97343.16;;;1.34;46.90
55171;BME280;41060;47.510;8.680;2023-02-28T03:43:45;97366.81;;;1.51;46.95
55171;BME280;41060;47.510;8.680;2023-02-28T03:46:18;97142.31;;;0.03;47.30
55171;BME280;41060;47.510;8.680;2023-02-28T03:48:51;97381.00;;;1.44;46.95
55171;BME280;41060;47.510;8.680;2023-02-28T03:51:23;97319.28;;;0.99;47.06
55171;BME280;41060;47.510;8.680;2023-02-28T03:53:54;97377.63;;;1.42;47.06
55171;BME280;41060;47.510;8.680;2023-02-28T03:56:24;97372.88;;;1.52;46.52
55171;BME280;41060;47.510;8.680;2023-02-28T03:58:55;97285.38;;;0.99;47.15
55171;BME280;41060;47.510;8.680;2023-02-28T04:01:27;97314.81;;;1.25;46.33
55171;BME280;41060;47.510;8.680;2023-02-28T04:03:56;97379.31;;;1.43;47.61
55171;BME280;41060;47.510;8.680;2023-02-28T04:06:23;97373.91;;;1.26;46.71
55171;BME280;41060;47.510;8.680;2023-02-28T04:08:52;97382.47;;;1.29;47.38
55171;BME280;41060;47.510;8.680;2023-02-28T04:11:23;97375.72;;;1.24;48.04
55171;BME280;41060;47.510;8.680;2023-02-28T04:13:50;97378.00;;;1.33;47.41
55171;BME280;41060;47.510;8.680;2023-02-28T04:16:17;97336.53;;;0.80;47.13
55171;BME280;41060;47.510;8.680;2023-02-28T04:18:45;97259.88;;;0.62;47.00
55171;BME280;41060;47.510;8.680;2023-02-28T04:21:12;97380.34;;;1.39;47.01
55171;BME280;41060;47.510;8.680;2023-02-28T04:23:40;97381.31;;;1.58;46.52
55171;BME280;41060;47.510;8.680;2023-02-28T04:26:08;97388.78;;;1.67;46.47
55171;BME280;41060;47.510;8.680;2023-02-28T04:28:34;97206.59;;;0.48;46.79
55171;BME280;41060;47.510;8.680;2023-02-28T04:31:04;97384.47;;;1.45;46.62
55171;BME280;41060;47.510;8.680;2023-02-28T04:33:32;97352.34;;;1.21;46.82
55171;BME280;41060;47.510;8.680;2023-02-28T04:36:00;97180.91;;;0.15;47.22
55171;BME280;41060;47.510;8.680;2023-02-28T04:38:29;97309.31;;;1.11;46.74
55171;BME280;41060;47.510;8.680;2023-02-28T04:40:57;97392.81;;;1.54;46.38
55171;BME280;41060;47.510;8.680;2023-02-28T04:43:25;97395.59;;;1.50;46.30
55171;BME280;41060;47.510;8.680;2023-02-28T04:45:53;97273.97;;;0.80;46.45
55171;BME280;41060;47.510;8.680;2023-02-28T04:48:22;97382.78;;;1.44;46.84
55171;BME280;41060;47.510;8.680;2023-02-28T04:50:48;97397.53;;;1.66;46.11
55171;BME280;41060;47.510;8.680;2023-02-28T04:53:15;97402.41;;;1.54;46.50
55171;BME280;41060;47.510;8.680;2023-02-28T04:55:42;97400.97;;;1.45;45.94
55171;BME280;41060;47.510;8.680;2023-02-28T04:58:09;97373.22;;;1.21;46.96
55171;BME280;41060;47.510;8.680;2023-02-28T05:00:38;97249.59;;;0.36;46.59
55171;BME280;41060;47.510;8.680;2023-02-28T05:03:05;97302.88;;;0.97;59.82
55171;BME280;41060;47.510;8.680;2023-02-28T05:05:31;97403.66;;;2.09;49.58
55171;BME280;41060;47.510;8.680;2023-02-28T05:07:59;97400.00;;;2.13;45.34
55171;BME280;41060;47.510;8.680;2023-02-28T05:10:25;97407.94;;;2.10;45.21
55171;BME280;41060;47.510;8.680;2023-02-28T05:12:52;97408.94;;;2.07;45.46
55171;BME280;41060;47.510;8.680;2023-02-28T05:15:19;97241.16;;;0.98;45.58
55171;BME280;41060;47.510;8.680;2023-02-28T05:17:47;97412.28;;;1.89;45.41
55171;BME280;41060;47.510;8.680;2023-02-28T05:20:17;97217.78;;;0.73;45.63
55171;BME280;41060;47.510;8.680;2023-02-28T05:22:44;97381.75;;;1.48;45.04
55171;BME280;41060;47.510;8.680;2023-02-28T05:25:13;97414.25;;;1.84;45.37
55171;BME280;41060;47.510;8.680;2023-02-28T05:27:42;97414.78;;;1.92;44.60
55171;BME280;41060;47.510;8.680;2023-02-28T05:30:10;97398.81;;;1.78;44.96
55171;BME280;41060;47.510;8.680;2023-02-28T05:32:37;97318.16;;;1.28;45.28
55171;BME280;41060;47.510;8.680;2023-02-28T05:35:06;97424.88;;;2.01;45.14
55171;BME280;41060;47.510;8.680;2023-02-28T05:37:33;97429.53;;;2.15;45.93
55171;BME280;41060;47.510;8.680;2023-02-28T05:40:00;97426.44;;;2.05;45.32
55171;BME280;41060;47.510;8.680;2023-02-28T05:42:26;97342.91;;;1.62;45.64
55171;BME280;41060;47.510;8.680;2023-02-28T05:44:54;97406.47;;;1.83;45.87
55171;BME280;41060;47.510;8.680;2023-02-28T05:47:20;97423.56;;;1.90;44.92
55171;BME280;41060;47.510;8.680;2023-02-28T05:49:46;97423.56;;;1.90;45.16
55171;BME280;41060;47.510;8.680;2023-02-28T05:52:15;97430.50;;;1.91;45.42
55171;BME280;41060;47.510;8.680;2023-02-28T05:54:41;97338.59;;;1.39;45.51
55171;BME280;41060;47.510;8.680;2023-02-28T05:57:08;97342.31;;;1.33;45.64
55171;BME280;41060;47.510;8.680;2023-02-28T05:59:35;97434.81;;;1.92;45.37
55171;BME280;41060;47.510;8.680;2023-02-28T06:02:05;97433.84;;;2.16;44.34
55171;BME280;41060;47.510;8.680;2023-02-28T06:04:32;97418.53;;;2.07;44.26
55171;BME280;41060;47.510;8.680;2023-02-28T06:06:59;97445.31;;;2.12;44.41
55171;BME280;41060;47.510;8.680;2023-02-28T06:09:28;97245.56;;;0.96;44.75
55171;BME280;41060;47.510;8.680;2023-02-28T06:11:54;97439.00;;;1.96;44.44
55171;BME280;41060;47.510;8.680;2023-02-28T06:14:23;97438.63;;;2.05;45.20
55171;BME280;41060;47.510;8.680;2023-02-28T06:16:50;97433.41;;;2.05;45.19
55171;BME280;41060;47.510;8.680;2023-02-28T06:19:17;97445.56;;;2.06;44.49
55171;BME280;41060;47.510;8.680;2023-02-28T06:21:44;97434.84;;;2.12;44.89
55171;BME280;41060;47.510;8.680;2023-02-28T06:24:10;97376.09;;;1.80;44.87
55171;BME280;41060;47.510;8.680;2023-02-28T06:26:38;97448.22;;;2.04;44.93
55171;BME280;41060;47.510;8.680;2023-02-28T06:29:06;97415.09;;;1.85;44.86
55171;BME280;41060;47.510;8.680;2023-02-28T06:31:32;97450.44;;;1.71;45.56
55171;BME280;41060;47.510;8.680;2023-02-28T06:33:59;97304.88;;;1.13;45.25
55171;BME280;41060;47.510;8.680;2023-02-28T06:36:26;97460.69;;;1.98;45.17
55171;BME280;41060;47.510;8.680;2023-02-28T06:38:52;97440.41;;;1.83;44.88
55171;BME280;41060;47.510;8.680;2023-02-28T06:41:22;97474.69;;;2.17;44.49
55171;BME280;41060;47.510;8.680;2023-02-28T06:43:51;97369.81;;;1.64;44.11
55171;BME280;41060;47.510;8.680;2023-02-28T06:46:17;97478.09;;;2.19;44.03
55171;BME280;41060;47.510;8.680;2023-02-28T06:48:44;97479.44;;;2.29;43.68
55171;BME280;41060;47.510;8.680;2023-02-28T06:51:15;97476.50;;;2.16;44.28
55171;BME280;41060;47.510;8.680;2023-02-28T06:53:42;97452.97;;;2.16;43.92
55171;BME280;41060;47.510;8.680;2023-02-28T06:56:11;97479.63;;;2.25;43.63
55171;BME280;41060;47.510;8.680;2023-02-28T06:58:38;97430.13;;;2.00;43.81
55171;BME280;41060;47.510;8.680;2023-02-28T07:01:07;97374.88;;;1.67;43.79
55171;BME280;41060;47.510;8.680;2023-02-28T07:03:35;97469.16;;;2.25;43.50
55171;BME280;41060;47.510;8.680;2023-02-28T07:06:02;97365.44;;;1.64;43.26
55171;BME280;41060;47.510;8.680;2023-02-28T07:08:31;97489.13;;;2.05;44.70
55171;BME280;41060;47.510;8.680;2023-02-28T07:10:58;97477.69;;;1.86;44.68
55171;BME280;41060;47.510;8.680;2023-02-28T07:13:25;97497.31;;;1.96;44.46
55171;BME280;41060;47.510;8.680;2023-02-28T07:15:56;97492.22;;;2.15;44.34
55171;BME280;41060;47.510;8.680;2023-02-28T07:18:25;97457.72;;;1.85;44.83
55171;BME280;41060;47.510;8.680;2023-02-28T07:20:52;97498.66;;;1.85;45.12
55171;BME280;41060;47.510;8.680;2023-02-28T07:23:19;97506.63;;;1.80;44.92
55171;BME280;41060;47.510;8.680;2023-02-28T07:25:47;97508.47;;;1.78;45.17
55171;BME280;41060;47.510;8.680;2023-02-28T07:28:14;97501.31;;;1.83;44.84
55171;BME280;41060;47.510;8.680;2023-02-28T07:30:40;97144.81;;;-0.17;44.56
55171;BME280;41060;47.510;8.680;2023-02-28T07:33:07;97462.53;;;1.72;44.66
55171;BME280;41060;47.510;8.680;2023-02-28T07:35:36;97503.53;;;1.94;44.87
55171;BME280;41060;47.510;8.680;2023-02-28T07:38:03;97444.66;;;1.63;44.06
55171;BME280;41060;47.510;8.680;2023-02-28T07:40:30;97501.75;;;1.94;44.89
55171;BME280;41060;47.510;8.680;2023-02-28T07:42:58;97454.97;;;1.66;44.54
55171;BME280;41060;47.510;8.680;2023-02-28T07:45:25;97342.19;;;0.91;45.10
55171;BME280;41060;47.510;8.680;2023-02-28T07:47:52;97518.91;;;2.01;44.49
55171;BME280;41060;47.510;8.680;2023-02-28T07:50:20;97192.84;;;-0.02;44.99
55171;BME280;41060;47.510;8.680;2023-02-28T07:52:48;97473.34;;;1.87;44.45
55171;BME280;41060;47.510;8.680;2023-02-28T07:55:14;97496.84;;;1.87;45.11
55171;BME280;41060;47.510;8.680;2023-02-28T07:57:42;97508.91;;;1.89;44.79
55171;BME280;41060;47.510;8.680;2023-02-28T08:00:11;97481.16;;;1.65;44.93
55171;BME280;41060;47.510;8.680;2023-02-28T08:02:38;97457.50;;;1.68;45.23
55171;BME280;41060;47.510;8.680;2023-02-28T08:05:07;97522.09;;;2.08;44.78
55171;BME280;41060;47.510;8.680;2023-02-28T08:07:34;97394.72;;;1.27;44.57
55171;BME280;41060;47.510;8.680;2023-02-28T08:10:02;97517.59;;;2.11;44.43
55171;BME280;41060;47.510;8.680;2023-02-28T08:12:31;97529.81;;;2.11;44.20
55171;BME280;41060;47.510;8.680;2023-02-28T08:14:58;97520.66;;;2.23;44.36
55171;BME280;41060;47.510;8.680;2023-02-28T08:17:24;97401.66;;;1.50;44.42
55171;BME280;41060;47.510;8.680;2023-02-28T08:19:51;97518.94;;;2.22;43.97
55171;BME280;41060;47.510;8.680;2023-02-28T08:22:19;97521.91;;;2.34;43.97
55171;BME280;41060;47.510;8.680;2023-02-28T08:24:45;97462.03;;;1.86;44.53
55171;BME280;41060;47.510;8.680;2023-02-28T08:27:14;97527.59;;;2.24;44.68
55171;BME280;41060;47.510;8.680;2023-02-28T08:29:41;97483.22;;;2.00;44.10
55171;BME280;41060;47.510;8.680;2023-02-28T08:32:07;97525.81;;;2.24;44.37
55171;BME280;41060;47.510;8.680;2023-02-28T08:34:34;97524.41;;;2.37;44.29
55171;BME280;41060;47.510;8.680;2023-02-28T08:37:01;97528.66;;;2.40;44.17
55171;BME280;41060;47.510;8.680;2023-02-28T08:39:27;97525.56;;;2.52;43.99
55171;BME280;41060;47.510;8.680;2023-02-28T08:41:54;97518.56;;;2.52;43.53
55171;BME280;41060;47.510;8.680;2023-02-28T08:44:22;97522.63;;;2.60;43.46
55171;BME280;41060;47.510;8.680;2023-02-28T08:46:49;97525.97;;;2.41;44.41
55171;BME280;41060;47.510;8.680;2023-02-28T08:49:16;97529.03;;;2.31;44.05
55171;BME280;41060;47.510;8.680;2023-02-28T08:51:44;97532.38;;;2.34;44.07
55171;BME280;41060;47.510;8.680;2023-02-28T08:54:10;97451.38;;;1.69;44.68
55171;BME280;41060;47.510;8.680;2023-02-28T08:56:38;97533.91;;;1.95;45.14
55171;BME280;41060;47.510;8.680;2023-02-28T08:59:05;97522.28;;;2.03;44.84
55171;BME280;41060;47.510;8.680;2023-02-28T09:01:33;97522.34;;;2.24;43.91
55171;BME280;41060;47.510;8.680;2023-02-28T09:04:02;97498.22;;;2.17;44.40
55171;BME280;41060;47.510;8.680;2023-02-28T09:06:28;97536.13;;;2.49;43.72
55171;BME280;41060;47.510;8.680;2023-02-28T09:08:56;97531.19;;;2.63;44.04
55171;BME280;41060;47.510;8.680;2023-02-28T09:11:25;97541.31;;;2.71;43.07
55171;BME280;41060;47.510;8.680;2023-02-28T09:13:55;97559.78;;;2.68;43.40
55171;BME280;41060;47.510;8.680;2023-02-28T09:16:22;97551.13;;;2.66;43.54
55171;BME280;41060;47.510;8.680;2023-02-28T09:18:50;97524.06;;;2.46;43.55
55171;BME280;41060;47.510;8.680;2023-02-28T09:21:18;97443.53;;;2.12;43.07
55171;BME280;41060;47.510;8.680;2023-02-28T09:23:46;97556.38;;;2.86;42.62
55171;BME280;41060;47.510;8.680;2023-02-28T09:26:14;97556.69;;;2.78;42.90
55171;BME280;41060;47.510;8.680;2023-02-28T09:28:43;97521.50;;;2.45;43.22
55171;BME280;41060;47.510;8.680;2023-02-28T09:31:12;97562.44;;;2.66;42.40
55171;BME280;41060;47.510;8.680;2023-02-28T09:33:40;97463.03;;;2.04;42.55
55171;BME280;41060;47.510;8.680;2023-02-28T09:36:08;97496.53;;;2.16;42.41
55171;BME280;41060;47.510;8.680;2023-02-28T09:38:35;97388.78;;;1.67;42.17
55171;BME280;41060;47.510;8.680;2023-02-28T09:41:09;97547.78;;;2.62;43.22
55171;BME280;41060;47.510;8.680;2023-02-28T09:43:40;97559.38;;;2.77;42.50
55171;BME280;41060;47.510;8.680;2023-02-28T09:46:16;97559.38;;;2.77;42.90
55171;BME280;41060;47.510;8.680;2023-02-28T09:48:45;97558.13;;;2.65;42.87
55171;BME280;41060;47.510;8.680;2023-02-28T09:51:27;97562.56;;;2.63;43.17
55171;BME280;41060;47.510;8.680;2023-02-28T09:53:56;97498.41;;;2.12;43.43
55171;BME280;41060;47.510;8.680;2023-02-28T09:56:25;97584.88;;;2.28;43.52
55171;BME280;41060;47.510;8.680;2023-02-28T09:58:56;97581.34;;;2.29;43.50
55171;BME280;41060;47.510;8.680;2023-02-28T10:01:31;97581.84;;;2.39;43.30
55171;BME280;41060;47.510;8.680;2023-02-28T10:04:07;97583.03;;;2.08;44.13
55171;BME280;41060;47.510;8.680;2023-02-28T10:06:44;97579.03;;;1.76;45.34
55171;BME280;41060;47.510;8.680;2023-02-28T10:09:17;97479.66;;;1.11;45.89
55171;BME280;41060;47.510;8.680;2023-02-28T10:11:48;97579.59;;;1.85;45.85
55171;BME280;41060;47.510;8.680;2023-02-28T10:14:19;97578.97;;;1.55;45.92
55171;BME280;41060;47.510;8.680;2023-02-28T10:16:49;97497.81;;;1.14;45.63
55171;BME280;41060;47.510;8.680;2023-02-28T10:19:22;97584.00;;;1.83;45.22
55171;BME280;41060;47.510;8.680;2023-02-28T10:21:55;97588.19;;;1.65;45.92
55171;BME280;41060;47.510;8.680;2023-02-28T10:24:29;97559.41;;;1.18;46.59
55171;BME280;41060;47.510;8.680;2023-02-28T10:27:00;97540.88;;;1.26;46.19
55171;BME280;41060;47.510;8.680;2023-02-28T10:29:31;97622.56;;;1.51;46.74
55171;BME280;41060;47.510;8.680;2023-02-28T10:32:01;97427.63;;;0.35;46.35
55171;BME280;41060;47.510;8.680;2023-02-28T10:34:28;97562.59;;;1.01;46.60
55171;BME280;41060;47.510;8.680;2023-02-28T10:36:58;97593.38;;;1.42;46.40
55171;BME280;41060;47.510;8.680;2023-02-28T10:39:38;97553.19;;;1.46;45.90
55171;BME280;41060;47.510;8.680;2023-02-28T10:42:19;97480.41;;;1.15;45.85
55171;BME280;41060;47.510;8.680;2023-02-28T10:44:46;97543.28;;;1.55;45.94
55171;BME280;41060;47.510;8.680;2023-02-28T10:47:14;97555.75;;;1.70;45.20
55171;BME280;41060;47.510;8.680;2023-02-28T10:49:47;97610.34;;;2.23;44.78
55171;BME280;41060;47.510;8.680;2023-02-28T10:52:33;97484.19;;;1.53;44.91
55171;BME280;41060;47.510;8.680;2023-02-28T10:55:15;97549.34;;;1.79;44.19
55171;BME280;41060;47.510;8.680;2023-02-28T10:57:45;97480.41;;;1.38;44.90
55171;BME280;41060;47.510;8.680;2023-02-28T11:00:15;97610.97;;;2.06;45.08
55171;BME280;41060;47.510;8.680;2023-02-28T11:02:43;97607.31;;;2.10;44.79
55171;BME280;41060;47.510;8.680;2023-02-28T11:05:26;97601.59;;;2.24;45.31
55171;BME280;41060;47.510;8.680;2023-02-28T11:07:56;97606.59;;;2.30;44.30
55171;BME280;41060;47.510;8.680;2023-02-28T11:10:26;97597.84;;;2.53;44.45
55171;BME280;41060;47.510;8.680;2023-02-28T11:12:56;97600.81;;;2.44;44.05
55171;BME280;41060;47.510;8.680;2023-02-28T11:15:24;97547.19;;;2.12;44.33
55171;BME280;41060;47.510;8.680;2023-02-28T11:17:59;97561.97;;;2.35;44.37
55171;BME280;41060;47.510;8.680;2023-02-28T11:20:29;97533.47;;;2.29;44.07
55171;BME280;41060;47.510;8.680;2023-02-28T11:22:58;97601.81;;;2.62;44.33
55171;BME280;41060;47.510;8.680;2023-02-28T11:25:30;97609.75;;;1.93;44.67
55171;BME280;41060;47.510;8.680;2023-02-28T11:28:00;97613.81;;;2.24;44.93
55171;BME280;41060;47.510;8.680;2023-02-28T11:30:34;97596.84;;;2.34;43.74
55171;BME280;41060;47.510;8.680;2023-02-28T11:33:14;97598.34;;;2.39;44.33
55171;BME280;41060;47.510;8.680;2023-02-28T11:35:45;97593.13;;;2.17;44.41
55171;BME280;41060;47.510;8.680;2023-02-28T11:38:18;97604.97;;;2.26;44.39
55171;BME280;41060;47.510;8.680;2023-02-28T11:40:49;97593.31;;;2.35;43.72
55171;BME280;41060;47.510;8.680;2023-02-28T11:43:32;97546.53;;;2.29;43.68
55171;BME280;41060;47.510;8.680;2023-02-28T11:46:17;97543.72;;;2.33;44.00
55171;BME280;41060;47.510;8.680;2023-02-28T11:48:56;97599.59;;;2.74;43.29
55171;BME280;41060;47.510;8.680;2023-02-28T11:51:28;97590.75;;;2.77;42.83
55171;BME280;41060;47.510;8.680;2023-02-28T11:54:08;97602.28;;;2.93;43.39
55171;BME280;41060;47.510;8.680;2023-02-28T11:56:48;97605.06;;;3.10;42.61
55171;BME280;41060;47.510;8.680;2023-02-28T11:59:31;97603.59;;;2.83;43.20
55171;BME280;41060;47.510;8.680;2023-02-28T12:02:15;97574.47;;;2.70;43.41
55171;BME280;41060;47.510;8.680;2023-02-28T12:04:53;97610.06;;;2.94;42.69
55171;BME280;41060;47.510;8.680;2023-02-28T12:07:31;97375.03;;;1.42;43.53
55171;BME280;41060;47.510;8.680;2023-02-28T12:10:06;97559.38;;;2.77;43.28
55171;BME280;41060;47.510;8.680;2023-02-28T12:12:47;97558.34;;;2.81;42.87
55171;BME280;41060;47.510;8.680;2023-02-28T12:15:34;97597.00;;;2.94;43.94
55171;BME280;41060;47.510;8.680;2023-02-28T12:18:20;97590.56;;;2.81;43.56
55171;BME280;41060;47.510;8.680;2023-02-28T12:20:53;97587.47;;;2.72;43.24
55171;BME280;41060;47.510;8.680;2023-02-28T12:23:48;97593.31;;;2.78;43.54
55171;BME280;41060;47.510;8.680;2023-02-28T12:26:19;97573.88;;;2.42;44.08
55171;BME280;41060;47.510;8.680;2023-02-28T12:28:52;97553.88;;;2.41;44.38
55171;BME280;41060;47.510;8.680;2023-02-28T12:31:21;97585.03;;;2.89;43.77
55171;BME280;41060;47.510;8.680;2023-02-28T12:33:52;97451.19;;;2.17;43.10
55171;BME280;41060;47.510;8.680;2023-02-28T12:36:20;97591.00;;;2.71;43.32
55171;BME280;41060;47.510;8.680;2023-02-28T12:38:53;97585.50;;;2.77;43.45
55171;BME280;41060;47.510;8.680;2023-02-28T12:41:27;97587.63;;;2.69;43.88
55171;BME280;41060;47.510;8.680;2023-02-28T12:44:00;97583.06;;;2.94;43.36
55171;BME280;41060;47.510;8.680;2023-02-28T12:46:32;97588.63;;;2.86;43.95
55171;BME280;41060;47.510;8.680;2023-02-28T12:49:06;97585.00;;;2.69;43.78
55171;BME280;41060;47.510;8.680;2023-02-28T12:51:35;97584.97;;;2.47;43.68
55171;BME280;41060;47.510;8.680;2023-02-28T12:54:10;97546.94;;;2.18;44.27
55171;BME280;41060;47.510;8.680;2023-02-28T12:56:46;97511.84;;;1.80;44.85
55171;BME280;41060;47.510;8.680;2023-02-28T12:59:21;97578.25;;;2.41;44.59
55171;BME280;41060;47.510;8.680;2023-02-28T13:02:09;97581.72;;;2.20;44.89
55171;BME280;41060;47.510;8.680;2023-02-28T13:05:05;97596.97;;;2.09;45.52
55171;BME280;41060;47.510;8.680;2023-02-28T13:08:11;97592.56;;;2.09;45.59
55171;BME280;41060;47.510;8.680;2023-02-28T13:10:48;97587.09;;;2.39;45.66
55171;BME280;41060;47.510;8.680;2023-02-28T13:13:23;97542.09;;;2.52;44.51
55171;BME280;41060;47.510;8.680;2023-02-28T13:16:03;97575.84;;;2.79;44.32
55171;BME280;41060;47.510;8.680;2023-02-28T13:18:33;97580.50;;;2.92;44.42
55171;BME280;41060;47.510;8.680;2023-02-28T13:21:03;97583.06;;;2.94;43.76
55171;BME280;41060;47.510;8.680;2023-02-28T13:23:57;97579.28;;;2.59;44.70
55171;BME280;41060;47.510;8.680;2023-02-28T13:29:31;97564.28;;;2.21;45.44
55171;BME280;41060;47.510;8.680;2023-02-28T13:32:19;97582.94;;;2.33;44.73
55171;BME280;41060;47.510;8.680;2023-02-28T13:38:32;97583.22;;;2.47;44.43
55171;BME280;41060;47.510;8.680;2023-02-28T13:44:07;97584.22;;;2.45;44.54